createdAt,value
2023-04-09T00:01:38.031Z,32.60
2023-04-09T00:04:06.354Z,31.20
2023-04-09T00:06:34.601Z,34.00
2023-04-09T00:09:02.712Z,31.60
2023-04-09T00:11:32.147Z,29.20
2023-04-09T00:14:00.243Z,33.40
2023-04-09T00:16:28.303Z,25.00
2023-04-09T00:18:56.426Z,25.20
2023-04-09T00:21:24.514Z,30.40
2023-04-09T00:23:53.112Z,30.00
2023-04-09T00:26:22.795Z,33.00
2023-04-09T00:28:52.395Z,36.40
2023-04-09T00:31:21.279Z,30.00
2023-04-09T00:33:49.381Z,31.80
2023-04-09T00:36:17.457Z,34.20
2023-04-09T00:38:45.537Z,26.40
2023-04-09T00:41:13.597Z,34.00
2023-04-09T00:47:27.287Z,24.00
2023-04-09T00:49:55.703Z,30.60
2023-04-09T00:52:23.821Z,22.40
2023-04-09T00:54:52.114Z,23.40
2023-04-09T00:57:20.749Z,25.60
2023-04-09T00:59:48.855Z,34.80
2023-04-09T01:02:16.989Z,26.40
2023-04-09T01:04:46.529Z,28.80
2023-04-09T01:07:17.503Z,24.80
2023-04-09T01:09:49.488Z,26.00
2023-04-09T01:12:22.592Z,30.00
2023-04-09T01:14:52.824Z,25.40
2023-04-09T01:17:23.703Z,13.80
2023-04-09T01:19:57.564Z,20.20
2023-04-09T01:22:32.955Z,32.20
2023-04-09T01:25:08.520Z,31.00
2023-04-09T01:27:41.411Z,18.80
2023-04-09T01:30:11.162Z,22.60
2023-04-09T01:32:39.505Z,26.40
2023-04-09T01:35:08.811Z,33.60
2023-04-09T01:37:36.920Z,27.60
2023-04-09T01:40:05.918Z,28.00
2023-04-09T01:42:34.179Z,29.20
2023-04-09T01:45:02.318Z,25.40
2023-04-09T01:47:31.970Z,33.60
2023-04-09T01:50:00.484Z,29.60
2023-04-09T01:52:28.739Z,21.20
2023-04-09T01:54:56.857Z,18.60
2023-04-09T01:57:24.912Z,25.20
2023-04-09T01:59:53.297Z,27.20
2023-04-09T02:02:24.761Z,27.80
2023-04-09T02:04:54.221Z,21.60
2023-04-09T02:07:26.794Z,24.00
2023-04-09T02:09:54.847Z,19.00
2023-04-09T02:12:23.521Z,22.40
2023-04-09T02:14:52.815Z,21.00
2023-04-09T02:17:21.001Z,22.60
2023-04-09T02:19:51.864Z,27.00
2023-04-09T02:22:24.532Z,21.20
2023-04-09T02:24:52.452Z,23.20
2023-04-09T02:27:20.482Z,17.00
2023-04-09T02:29:48.572Z,21.00
2023-04-09T02:32:16.677Z,22.40
2023-04-09T02:34:46.046Z,19.00
2023-04-09T02:37:14.160Z,20.00
2023-04-09T02:39:43.581Z,18.40
2023-04-09T02:42:11.600Z,18.40
2023-04-09T02:44:39.972Z,20.00
2023-04-09T02:47:08.040Z,18.80
2023-04-09T02:49:36.113Z,17.20
2023-04-09T02:52:06.949Z,14.60
2023-04-09T02:54:35.020Z,19.40
2023-04-09T02:57:04.546Z,15.80
2023-04-09T02:59:34.363Z,18.60
2023-04-09T03:02:02.586Z,9.20
2023-04-09T03:04:30.702Z,23.00
2023-04-09T03:06:59.176Z,11.20
2023-04-09T03:09:27.164Z,16.80
2023-04-09T03:11:56.335Z,18.80
2023-04-09T03:14:25.914Z,13.00
2023-04-09T03:16:53.898Z,10.80
2023-04-09T03:19:22.032Z,10.40
2023-04-09T03:21:51.422Z,11.60
2023-04-09T03:24:19.609Z,11.60
2023-04-09T03:26:47.634Z,10.40
2023-04-09T03:29:16.310Z,10.40
2023-04-09T03:31:45.755Z,11.20
2023-04-09T03:34:13.769Z,9.20
2023-04-09T03:36:42.178Z,7.60
2023-04-09T03:39:10.222Z,11.20
2023-04-09T03:41:38.255Z,9.00
2023-04-09T03:44:06.600Z,11.40
2023-04-09T03:46:34.754Z,9.60
2023-04-09T03:49:04.264Z,12.60
2023-04-09T03:51:32.265Z,12.60
2023-04-09T03:54:00.846Z,9.80
2023-04-09T03:56:28.880Z,11.80
2023-04-09T03:58:56.899Z,8.60
2023-04-09T04:01:25.474Z,15.00
2023-04-09T04:03:53.625Z,12.20
2023-04-09T04:06:23.158Z,11.20
2023-04-09T04:08:51.417Z,9.20
2023-04-09T04:11:19.876Z,13.60
2023-04-09T04:13:48.032Z,9.80
2023-04-09T04:16:16.057Z,9.40
2023-04-09T04:18:44.109Z,10.00
2023-04-09T04:21:14.658Z,7.80
2023-04-09T04:23:44.602Z,10.00
2023-04-09T04:26:12.624Z,3.80
2023-04-09T04:28:40.925Z,2.20
2023-04-09T04:31:10.794Z,11.20
2023-04-09T04:33:39.023Z,12.80
2023-04-09T04:36:07.800Z,12.80
2023-04-09T04:38:35.876Z,8.20
2023-04-09T04:41:05.410Z,7.00
2023-04-09T04:43:36.318Z,11.20
2023-04-09T04:46:04.433Z,6.40
2023-04-09T04:48:32.578Z,9.60
2023-04-09T04:51:01.600Z,9.60
2023-04-09T04:53:30.048Z,11.80
2023-04-09T04:55:58.071Z,13.20
2023-04-09T04:58:27.531Z,9.00
2023-04-09T05:00:56.078Z,10.80
2023-04-09T05:03:26.111Z,11.20
2023-04-09T05:05:55.528Z,9.80
2023-04-09T05:08:23.558Z,10.60
2023-04-09T05:10:51.576Z,11.20
2023-04-09T05:13:20.131Z,4.00
2023-04-09T05:15:49.665Z,10.40
2023-04-09T05:18:17.679Z,12.20
2023-04-09T05:20:46.088Z,14.80
2023-04-09T05:23:14.145Z,6.20
2023-04-09T05:25:42.164Z,11.20
2023-04-09T05:28:11.291Z,12.00
2023-04-09T05:30:39.407Z,14.20
2023-04-09T05:33:08.897Z,8.80
2023-04-09T05:35:39.841Z,13.60
2023-04-09T05:38:08.002Z,12.80
2023-04-09T05:40:36.425Z,15.00
2023-04-09T05:43:04.561Z,16.40
2023-04-09T05:45:32.628Z,12.20
2023-04-09T05:48:00.666Z,9.00
2023-04-09T05:50:30.414Z,13.60
2023-04-09T05:52:59.033Z,20.80
2023-04-09T05:55:27.028Z,18.20
2023-04-09T05:57:55.148Z,11.00
2023-04-09T06:00:23.586Z,15.20
2023-04-09T06:02:53.026Z,18.00
2023-04-09T06:05:21.351Z,15.20
2023-04-09T06:07:50.802Z,18.00
2023-04-09T06:10:19.326Z,7.60
2023-04-09T06:12:47.521Z,15.60
2023-04-09T06:15:15.675Z,17.20
2023-04-09T06:17:43.748Z,15.60
2023-04-09T06:20:12.477Z,9.40
2023-04-09T06:22:40.624Z,15.80
2023-04-09T06:25:10.624Z,16.00
2023-04-09T06:27:38.666Z,13.80
2023-04-09T06:30:08.472Z,16.00
2023-04-09T06:32:46.912Z,9.40
2023-04-09T06:35:19.559Z,13.00
2023-04-09T06:37:48.160Z,16.00
2023-04-09T06:40:25.679Z,18.40
2023-04-09T06:42:53.711Z,18.60
2023-04-09T06:45:22.141Z,10.80
2023-04-09T06:47:50.218Z,12.60
2023-04-09T06:50:18.350Z,16.80
2023-04-09T06:52:46.430Z,16.00
2023-04-09T06:55:14.807Z,18.20
2023-04-09T06:57:44.227Z,18.40
2023-04-09T07:00:13.155Z,15.20
2023-04-09T07:02:41.600Z,20.20
2023-04-09T07:05:11.092Z,19.60
2023-04-09T07:07:39.172Z,15.40
2023-04-09T07:10:08.474Z,17.80
2023-04-09T07:12:36.963Z,22.60
2023-04-09T07:15:07.578Z,24.00
2023-04-09T07:17:36.206Z,17.60
2023-04-09T07:20:04.964Z,18.80
2023-04-09T07:22:33.256Z,21.20
2023-04-09T07:25:01.381Z,21.40
2023-04-09T07:27:29.458Z,17.40
2023-04-09T07:29:58.008Z,19.00
2023-04-09T07:32:28.239Z,14.20
2023-04-09T07:34:57.494Z,18.40
2023-04-09T07:37:25.630Z,16.20
2023-04-09T07:39:53.696Z,14.20
2023-04-09T07:42:21.923Z,18.00
2023-04-09T07:44:51.540Z,13.80
2023-04-09T07:47:19.753Z,19.00
2023-04-09T07:49:49.554Z,17.40
2023-04-09T07:52:20.572Z,25.00
2023-04-09T07:54:51.554Z,34.00
2023-04-09T07:57:19.703Z,39.40
2023-04-09T07:59:48.166Z,59.40
2023-04-09T08:02:18.022Z,53.60
2023-04-09T08:04:46.146Z,48.40
2023-04-09T08:07:16.214Z,49.60
2023-04-09T08:09:44.331Z,52.80
2023-04-09T08:12:12.383Z,59.20
2023-04-09T08:14:41.418Z,56.60
2023-04-09T08:17:09.391Z,60.00
2023-04-09T08:19:39.792Z,44.00
2023-04-09T08:22:09.359Z,48.60
2023-04-09T08:24:40.299Z,13.60
2023-04-09T08:27:08.403Z,16.20
2023-04-09T08:29:36.828Z,13.80
2023-04-09T08:32:05.509Z,16.40
2023-04-09T08:34:33.804Z,13.00
2023-04-09T08:37:01.900Z,12.40
2023-04-09T08:39:31.437Z,12.20
2023-04-09T08:42:01.827Z,7.80
2023-04-09T08:44:30.212Z,5.60
2023-04-09T08:46:59.691Z,14.20
2023-04-09T08:49:27.992Z,10.40
2023-04-09T08:51:57.064Z,6.80
2023-04-09T08:54:26.893Z,9.60
2023-04-09T08:56:55.039Z,12.40
2023-04-09T08:59:24.431Z,14.60
2023-04-09T09:02:08.068Z,7.00
2023-04-09T09:04:46.458Z,10.00
2023-04-09T09:07:14.674Z,3.00
2023-04-09T09:09:53.792Z,9.60
2023-04-09T09:12:33.103Z,12.00
2023-04-09T09:15:02.555Z,10.80
2023-04-09T09:17:30.705Z,9.00
2023-04-09T09:19:59.028Z,10.80
2023-04-09T09:22:27.249Z,10.00
2023-04-09T09:24:55.896Z,10.80
2023-04-09T09:27:36.502Z,12.40
2023-04-09T09:30:10.983Z,10.00
2023-04-09T09:32:39.206Z,13.00
2023-04-09T09:35:08.181Z,10.40
2023-04-09T09:37:36.205Z,14.60
2023-04-09T09:40:04.996Z,9.00
2023-04-09T09:42:33.121Z,15.20
2023-04-09T09:45:01.464Z,9.40
2023-04-09T09:47:31.424Z,13.00
2023-04-09T09:49:59.563Z,10.20
2023-04-09T09:52:28.058Z,13.20
2023-04-09T09:54:56.514Z,12.20
2023-04-09T09:57:25.006Z,15.40
2023-04-09T09:59:55.288Z,14.00
2023-04-09T10:02:24.907Z,14.60
2023-04-09T10:04:54.623Z,12.80
2023-04-09T10:07:24.108Z,11.60
2023-04-09T10:09:52.596Z,15.40
2023-04-09T10:12:20.830Z,9.60
2023-04-09T10:14:49.087Z,17.20
2023-04-09T10:17:18.396Z,18.40
2023-04-09T10:19:55.300Z,16.40
2023-04-09T10:22:23.701Z,15.20
2023-04-09T10:24:52.661Z,15.80
2023-04-09T10:27:21.128Z,10.40
2023-04-09T10:29:51.927Z,9.60
2023-04-09T10:32:21.876Z,18.00
2023-04-09T10:34:50.948Z,12.80
2023-04-09T10:37:25.593Z,17.40
2023-04-09T10:39:54.029Z,13.00
2023-04-09T10:42:24.845Z,12.00
2023-04-09T10:45:08.369Z,13.40
2023-04-09T10:47:37.539Z,16.00
2023-04-09T10:50:19.736Z,16.80
2023-04-09T10:52:52.814Z,13.00
2023-04-09T10:55:37.184Z,16.80
2023-04-09T10:58:06.255Z,18.40
2023-04-09T11:00:34.986Z,16.80
2023-04-09T11:03:30.802Z,13.80
2023-04-09T11:06:06.071Z,66.20
2023-04-09T11:08:38.967Z,13.20
2023-04-09T11:11:07.345Z,16.00
2023-04-09T11:13:35.429Z,25.20
2023-04-09T11:16:07.028Z,23.80
2023-04-09T11:18:37.122Z,12.00
2023-04-09T11:21:05.559Z,14.60
2023-04-09T11:23:33.734Z,27.20
2023-04-09T11:26:03.244Z,8.60
2023-04-09T11:28:31.378Z,14.20
2023-04-09T11:30:59.476Z,15.00
2023-04-09T11:33:33.429Z,18.00
2023-04-09T11:36:01.874Z,12.40
2023-04-09T11:38:29.910Z,16.00
2023-04-09T11:40:58.808Z,6.60
2023-04-09T11:43:28.264Z,12.00
2023-04-09T11:45:57.758Z,16.60
2023-04-09T11:48:26.093Z,12.20
2023-04-09T11:50:54.129Z,10.00
2023-04-09T11:53:22.682Z,11.00
2023-04-09T11:55:51.948Z,11.50
2023-04-09T11:58:20.068Z,10.50
2023-04-09T12:00:49.956Z,6.75
2023-04-09T12:03:18.406Z,12.80
2023-04-09T12:05:50.663Z,13.00
2023-04-09T12:08:23.855Z,15.50
2023-04-09T12:10:53.714Z,15.00
2023-04-09T12:13:22.229Z,13.00
2023-04-09T12:15:51.687Z,15.00
2023-04-09T12:18:22.961Z,12.50
2023-04-09T12:20:51.127Z,12.00
2023-04-09T12:23:21.518Z,12.75
2023-04-09T12:25:52.046Z,10.00
2023-04-09T12:28:20.050Z,9.75
2023-04-09T12:30:49.328Z,14.50
2023-04-09T12:33:18.815Z,13.00
2023-04-09T12:35:47.340Z,10.00
2023-04-09T12:38:15.471Z,12.75
2023-04-09T12:40:43.752Z,10.00
2023-04-09T12:43:12.108Z,9.75
2023-04-09T12:45:40.266Z,12.25
2023-04-09T12:48:08.484Z,15.25
2023-04-09T12:50:38.336Z,15.50
2023-04-09T12:53:06.362Z,7.00
2023-04-09T12:55:37.051Z,12.75
2023-04-09T12:58:05.034Z,10.75
2023-04-09T13:00:33.493Z,11.00
2023-04-09T13:03:01.854Z,17.20
2023-04-09T13:05:31.538Z,3.75
2023-04-09T13:08:01.886Z,7.00
2023-04-09T13:10:30.507Z,12.25
2023-04-09T13:12:58.535Z,11.75
2023-04-09T13:15:28.488Z,5.00
2023-04-09T13:17:57.142Z,9.75
2023-04-09T13:20:25.169Z,10.50
2023-04-09T13:22:54.527Z,9.00
2023-04-09T13:25:24.229Z,12.00
2023-04-09T13:27:52.265Z,9.50
2023-04-09T13:30:20.345Z,11.00
2023-04-09T13:32:48.904Z,12.75
2023-04-09T13:35:19.569Z,12.50
2023-04-09T13:37:47.607Z,9.00
2023-04-09T13:40:16.834Z,9.50
2023-04-09T13:42:46.406Z,9.00
2023-04-09T13:45:14.431Z,10.50
2023-04-09T13:47:43.153Z,9.50
2023-04-09T13:50:13.191Z,11.00
2023-04-09T13:52:41.400Z,12.75
2023-04-09T13:55:11.565Z,11.00
2023-04-09T13:57:39.584Z,9.00
2023-04-09T14:00:11.921Z,14.50
2023-04-09T14:02:40.394Z,8.50
2023-04-09T14:05:09.084Z,9.00
2023-04-09T14:07:37.114Z,9.50
2023-04-09T14:10:05.702Z,11.00
2023-04-09T14:12:36.122Z,8.00
2023-04-09T14:15:04.379Z,11.00
2023-04-09T14:17:33.920Z,7.50
2023-04-09T14:20:03.845Z,9.75
2023-04-09T14:22:31.953Z,3.50
2023-04-09T14:25:00.529Z,7.50
2023-04-09T14:27:28.574Z,9.25
2023-04-09T14:29:57.082Z,9.00
2023-04-09T14:32:25.159Z,9.50
2023-04-09T14:34:54.735Z,3.00
2023-04-09T14:37:23.256Z,6.50
2023-04-09T14:39:51.266Z,6.50
2023-04-09T14:42:19.350Z,13.00
2023-04-09T14:44:50.595Z,12.25
2023-04-09T14:47:19.253Z,10.50
2023-04-09T14:49:48.208Z,10.00
2023-04-09T14:52:17.657Z,10.00
2023-04-09T14:54:46.504Z,10.50
2023-04-09T14:57:14.615Z,8.00
2023-04-09T14:59:42.552Z,12.00
2023-04-09T15:02:11.307Z,9.25
2023-04-09T15:04:39.447Z,6.00
2023-04-09T15:07:07.854Z,9.75
2023-04-09T15:09:39.221Z,13.00
2023-04-09T15:12:08.974Z,9.00
2023-04-09T15:14:37.002Z,11.50
2023-04-09T15:17:05.053Z,9.75
2023-04-09T15:19:33.288Z,9.00
2023-04-09T15:22:03.640Z,9.50
2023-04-09T15:24:33.956Z,9.00
2023-04-09T15:27:03.416Z,7.00
2023-04-09T15:29:31.508Z,9.75
2023-04-09T15:31:59.631Z,9.00
2023-04-09T15:34:27.745Z,8.50
2023-04-09T15:36:55.761Z,8.50
2023-04-09T15:39:24.557Z,10.00
2023-04-09T15:41:52.604Z,9.75
2023-04-09T15:44:22.048Z,8.50
2023-04-09T15:46:50.003Z,9.00
2023-04-09T15:49:18.240Z,9.00
2023-04-09T15:51:46.342Z,13.00
2023-04-09T15:54:14.557Z,8.00
2023-04-09T15:56:42.922Z,7.00
2023-04-09T15:59:11.331Z,8.00
2023-04-09T16:01:41.150Z,12.00
2023-04-09T16:04:09.471Z,11.00
2023-04-09T16:06:38.799Z,10.00
2023-04-09T16:09:07.080Z,9.75
2023-04-09T16:11:35.974Z,9.50
2023-04-09T16:14:04.125Z,6.00
2023-04-09T16:16:33.653Z,9.60
2023-04-09T16:19:16.373Z,9.75
2023-04-09T16:21:45.644Z,10.00
2023-04-09T16:24:13.742Z,12.20
2023-04-09T16:26:43.225Z,12.20
2023-04-09T16:29:11.267Z,10.00
2023-04-09T16:31:41.983Z,12.80
2023-04-09T16:34:11.430Z,9.60
2023-04-09T16:36:41.185Z,10.60
2023-04-09T16:39:09.103Z,8.60
2023-04-09T16:41:37.179Z,9.00
2023-04-09T16:44:05.301Z,9.00
2023-04-09T16:46:33.902Z,9.00
2023-04-09T16:49:01.974Z,10.00
2023-04-09T16:51:31.465Z,9.20
2023-04-09T16:53:59.820Z,7.40
2023-04-09T16:56:27.828Z,15.40
2023-04-09T16:58:55.968Z,10.00
2023-04-09T17:01:24.065Z,7.20
2023-04-09T17:03:52.213Z,10.00
2023-04-09T17:06:20.416Z,12.00
2023-04-09T17:08:49.861Z,12.00
2023-04-09T17:11:18.411Z,9.00
2023-04-09T17:13:46.503Z,7.40
2023-04-09T17:16:15.497Z,4.80
2023-04-09T17:18:45.351Z,8.40
2023-04-09T17:21:13.711Z,10.00
2023-04-09T17:23:42.616Z,7.40
2023-04-09T17:26:12.054Z,8.20
2023-04-09T17:28:40.313Z,8.60
2023-04-09T17:31:13.423Z,10.00
2023-04-09T17:33:41.750Z,9.60
2023-04-09T17:36:09.885Z,10.80
2023-04-09T17:38:38.089Z,7.80
2023-04-09T17:41:07.790Z,9.00
2023-04-09T17:43:37.983Z,7.00
2023-04-09T17:46:07.816Z,6.60
2023-04-09T17:48:35.827Z,12.00
2023-04-09T17:51:04.052Z,10.00
2023-04-09T17:53:32.389Z,7.00
2023-04-09T17:56:03.037Z,9.00
2023-04-09T17:58:30.996Z,9.00
2023-04-09T18:01:00.515Z,10.00
2023-04-09T18:03:28.828Z,10.00
2023-04-09T18:05:56.975Z,11.60
2023-04-09T18:08:25.193Z,8.40
2023-04-09T18:11:10.973Z,10.80
2023-04-09T18:13:40.516Z,12.80
2023-04-09T18:16:12.344Z,7.80
2023-04-09T18:18:40.674Z,8.60
2023-04-09T18:21:08.834Z,18.20
2023-04-09T18:23:37.125Z,13.40
2023-04-09T18:26:05.329Z,15.60
2023-04-09T18:28:33.414Z,15.20
2023-04-09T18:31:01.481Z,15.40
2023-04-09T18:33:30.861Z,12.20
2023-04-09T18:36:01.211Z,12.20
2023-04-09T18:38:29.936Z,13.40
2023-04-09T18:40:57.982Z,17.20
2023-04-09T18:43:26.088Z,15.20
2023-04-09T18:45:54.969Z,15.80
2023-04-09T18:48:23.410Z,15.20
2023-04-09T18:50:52.739Z,13.00
2023-04-09T18:56:23.943Z,12.20
2023-04-09T18:58:56.236Z,17.20
2023-04-09T19:01:51.501Z,15.00
2023-04-09T19:04:20.008Z,19.00
2023-04-09T19:06:50.198Z,15.60
2023-04-09T19:09:19.146Z,18.00
2023-04-09T19:11:47.240Z,17.00
2023-04-09T19:14:25.180Z,16.40
2023-04-09T19:17:02.946Z,23.60
2023-04-09T19:19:41.161Z,25.40
2023-04-09T19:22:18.029Z,29.60
2023-04-09T19:27:36.695Z,23.00
2023-04-09T19:30:05.376Z,19.20
2023-04-09T19:32:33.528Z,22.60
2023-04-09T19:35:01.764Z,20.20
2023-04-09T19:37:31.284Z,19.60
2023-04-09T19:40:01.274Z,13.00
2023-04-09T19:42:29.735Z,17.60
2023-04-09T19:44:57.778Z,22.80
2023-04-09T19:47:25.864Z,18.60
2023-04-09T19:49:54.553Z,15.40
2023-04-09T19:52:22.657Z,13.40
2023-04-09T19:54:56.436Z,14.40
2023-04-09T19:57:24.422Z,15.40
2023-04-09T19:59:52.476Z,17.60
2023-04-09T20:02:20.904Z,18.60
2023-04-09T20:04:49.232Z,16.00
2023-04-09T20:07:17.687Z,18.20
2023-04-09T20:09:47.040Z,15.00
2023-04-09T20:12:17.664Z,12.00
2023-04-09T20:14:46.693Z,17.60
2023-04-09T20:17:14.756Z,14.60
2023-04-09T20:19:42.761Z,12.80
2023-04-09T20:22:10.705Z,14.60
2023-04-09T20:24:38.742Z,9.00
2023-04-09T20:27:06.724Z,15.80
2023-04-09T20:29:36.134Z,16.00
2023-04-09T20:32:04.323Z,14.20
2023-04-09T20:34:32.689Z,13.00
2023-04-09T20:37:00.756Z,15.60
2023-04-09T20:39:28.770Z,14.60
2023-04-09T20:41:57.614Z,12.00
2023-04-09T20:44:25.699Z,17.60
2023-04-09T20:46:55.033Z,10.00
2023-04-09T20:49:23.169Z,18.00
2023-04-09T20:51:52.008Z,10.00
2023-04-09T20:54:22.512Z,14.80
2023-04-09T20:56:51.342Z,15.80
2023-04-09T20:59:19.893Z,15.60
2023-04-09T21:01:51.363Z,14.80
2023-04-09T21:04:21.156Z,15.00
2023-04-09T21:06:50.495Z,11.60
2023-04-09T21:09:20.895Z,11.20
2023-04-09T21:11:48.959Z,15.80
2023-04-09T21:14:17.089Z,9.00
2023-04-09T21:16:45.126Z,14.60
2023-04-09T21:19:17.396Z,12.40
2023-04-09T21:21:48.190Z,12.40
2023-04-09T21:24:16.355Z,13.80
2023-04-09T21:26:51.520Z,14.20
2023-04-09T21:29:20.877Z,13.00
2023-04-09T21:31:49.306Z,15.20
2023-04-09T21:34:18.049Z,12.00
2023-04-09T21:36:50.053Z,15.00
2023-04-09T21:39:18.283Z,11.60
2023-04-09T21:41:46.315Z,14.60
2023-04-09T21:44:14.620Z,12.80
2023-04-09T21:46:46.179Z,13.40
2023-04-09T21:49:14.165Z,9.00
2023-04-09T21:51:42.712Z,16.40
2023-04-09T21:54:12.690Z,16.00
2023-04-09T21:56:40.746Z,18.00
2023-04-09T21:59:08.736Z,15.20
2023-04-09T22:01:36.944Z,18.00
2023-04-09T22:04:05.171Z,10.20
2023-04-09T22:06:33.544Z,20.80
2023-04-09T22:09:02.414Z,17.60
2023-04-09T22:11:34.206Z,17.80
2023-04-09T22:14:02.284Z,21.00
2023-04-09T22:16:31.733Z,24.00
2023-04-09T22:18:59.815Z,13.80
2023-04-09T22:21:27.946Z,27.40
2023-04-09T22:23:56.966Z,16.80
2023-04-09T22:26:25.032Z,25.80
2023-04-09T22:28:54.938Z,17.40
2023-04-09T22:31:23.304Z,25.00
2023-04-09T22:33:52.301Z,32.80
2023-04-09T22:36:23.039Z,32.40
2023-04-09T22:38:51.977Z,32.60
2023-04-09T22:41:21.570Z,39.60
2023-04-09T22:43:50.442Z,40.00
2023-04-09T22:46:22.303Z,38.00
2023-04-09T22:48:51.760Z,29.80
2023-04-09T22:51:20.142Z,36.40
2023-04-09T22:53:48.762Z,38.40
2023-04-09T22:56:17.851Z,36.60
2023-04-09T22:58:52.115Z,40.00
2023-04-09T23:01:23.251Z,37.20
2023-04-09T23:03:51.779Z,27.40
2023-04-09T23:06:19.833Z,32.20
2023-04-09T23:08:47.840Z,34.80
2023-04-09T23:11:16.423Z,23.60
2023-04-09T23:13:44.969Z,34.60
2023-04-09T23:16:13.122Z,33.40
2023-04-09T23:18:42.512Z,33.20
2023-04-09T23:21:10.643Z,34.20
2023-04-09T23:23:39.635Z,25.40
2023-04-09T23:26:08.183Z,36.00
2023-04-09T23:28:36.549Z,32.80
2023-04-09T23:31:04.637Z,28.20
2023-04-09T23:33:32.832Z,31.60
2023-04-09T23:36:03.002Z,30.20
2023-04-09T23:38:31.152Z,25.40
2023-04-09T23:40:59.244Z,23.40
2023-04-09T23:43:27.359Z,32.40
2023-04-09T23:45:55.533Z,30.60
2023-04-09T23:48:23.715Z,30.60
2023-04-09T23:50:51.953Z,29.20
2023-04-09T23:53:21.350Z,27.20
2023-04-09T23:55:50.160Z,30.00
2023-04-09T23:58:19.008Z,24.20
